Time,TemperatureF,DewpointF,PressureIn,WindDirection,WindDirectionDegrees,WindSpeedMPH,WindSpeedGustMPH,Humidity,HourlyPrecipIn,Conditions,Clouds,dailyrainin,SoftwareType,DateUTC
2013-06-06 00:00:00,58.3,47.5,30.17,West,270,11.9,15.9,67,0.00,,,0.00,Rainwise IP-100,2013-06-06 04:00:00,
2013-06-06 00:01:00,58.3,47.5,30.17,West,270,9.1,15.9,67,0.00,,,0.00,Rainwise IP-100,2013-06-06 04:01:00,
2013-06-06 00:06:00,58.4,47.0,30.16,West,270,16.6,17.5,66,0.00,,,0.00,Rainwise IP-100,2013-06-06 04:06:00,
2013-06-06 00:11:00,58.3,47.5,30.16,West,270,15.2,18.2,67,0.00,,,0.00,Rainwise IP-100,2013-06-06 04:11:00,
2013-06-06 00:16:00,58.3,47.0,30.16,WSW,247,11.4,17.3,66,0.00,,,0.00,Rainwise IP-100,2013-06-06 04:16:00,
2013-06-06 00:21:00,58.3,47.5,30.16,West,270,11.2,17.7,67,0.00,,,0.00,Rainwise IP-100,2013-06-06 04:21:00,
2013-06-06 00:26:00,58.2,47.5,30.17,West,270,10.0,16.6,67,0.00,,,0.00,Rainwise IP-100,2013-06-06 04:26:00,
2013-06-06 00:31:00,58.1,47.5,30.17,West,270,12.6,18.7,67,0.00,,,0.00,Rainwise IP-100,2013-06-06 04:31:00,
2013-06-06 00:36:00,58.1,47.5,30.16,West,270,7.0,18.4,68,0.00,,,0.00,Rainwise IP-100,2013-06-06 04:36:00,
2013-06-06 00:41:00,58.1,47.5,30.17,West,270,13.1,15.6,68,0.00,,,0.00,Rainwise IP-100,2013-06-06 04:41:00,
2013-06-06 00:46:00,58.0,47.5,30.17,WSW,247,14.0,15.9,68,0.00,,,0.00,Rainwise IP-100,2013-06-06 04:46:00,
2013-06-06 00:51:00,57.9,47.5,30.17,West,270,11.4,14.9,68,0.00,,,0.00,Rainwise IP-100,2013-06-06 04:51:00,
2013-06-06 00:56:00,58.0,47.5,30.17,West,270,8.4,14.9,67,0.00,,,0.00,Rainwise IP-100,2013-06-06 04:56:00,
2013-06-06 01:01:00,58.2,47.5,30.17,West,270,5.4,15.9,67,0.00,,,0.00,Rainwise IP-100,2013-06-06 05:01:00,
2013-06-06 01:06:00,58.3,47.0,30.17,West,270,13.1,14.2,66,0.00,,,0.00,Rainwise IP-100,2013-06-06 05:06:00,
2013-06-06 01:11:00,58.4,47.0,30.17,West,270,10.0,13.5,65,0.00,,,0.00,Rainwise IP-100,2013-06-06 05:11:00,
2013-06-06 01:16:00,58.6,47.0,30.17,West,270,8.4,15.2,64,0.00,,,0.00,Rainwise IP-100,2013-06-06 05:16:00,
2013-06-06 01:21:00,58.7,47.0,30.17,West,270,9.3,13.5,63,0.00,,,0.00,Rainwise IP-100,2013-06-06 05:21:00,
2013-06-06 01:26:00,58.7,46.0,30.17,West,270,9.3,14.2,62,0.00,,,0.00,Rainwise IP-100,2013-06-06 05:26:00,
2013-06-06 01:31:00,58.7,46.0,30.17,West,270,7.7,14.0,61,0.00,,,0.00,Rainwise IP-100,2013-06-06 05:31:00,
2013-06-06 01:36:00,58.6,46.0,30.18,West,270,11.9,12.6,62,0.00,,,0.00,Rainwise IP-100,2013-06-06 05:36:00,
2013-06-06 01:41:00,58.5,46.0,30.17,West,270,9.1,13.1,61,0.00,,,0.00,Rainwise IP-100,2013-06-06 05:41:00,
2013-06-06 01:46:00,58.4,45.0,30.18,West,270,8.9,12.6,61,0.00,,,0.00,Rainwise IP-100,2013-06-06 05:46:00,
2013-06-06 01:51:00,58.3,45.0,30.17,WSW,247,8.9,12.8,61,0.00,,,0.00,Rainwise IP-100,2013-06-06 05:51:00,
2013-06-06 01:56:00,58.2,45.0,30.17,West,270,5.8,10.7,61,0.00,,,0.00,Rainwise IP-100,2013-06-06 05:56:00,
2013-06-06 02:01:00,58.2,44.0,30.18,WNW,292,7.0,11.2,60,0.00,,,0.00,Rainwise IP-100,2013-06-06 06:01:00,
2013-06-06 02:06:00,58.2,44.0,30.18,NW,315,1.9,9.3,59,0.00,,,0.00,Rainwise IP-100,2013-06-06 06:06:00,
2013-06-06 02:11:00,58.1,43.0,30.18,WNW,292,4.7,7.7,58,0.00,,,0.00,Rainwise IP-100,2013-06-06 06:11:00,
2013-06-06 02:16:00,58.0,43.0,30.18,WNW,292,1.2,6.3,58,0.00,,,0.00,Rainwise IP-100,2013-06-06 06:16:00,
2013-06-06 02:21:00,57.9,43.0,30.18,NW,315,2.3,4.4,58,0.00,,,0.00,Rainwise IP-100,2013-06-06 06:21:00,
2013-06-06 02:26:00,57.6,43.0,30.18,NNW,337,1.9,3.7,59,0.00,,,0.00,Rainwise IP-100,2013-06-06 06:26:00,
2013-06-06 02:31:00,57.3,43.0,30.17,West,270,2.3,3.0,59,0.00,,,0.00,Rainwise IP-100,2013-06-06 06:31:00,
2013-06-06 02:36:00,57.3,43.0,30.18,West,270,4.0,6.1,58,0.00,,,0.00,Rainwise IP-100,2013-06-06 06:36:00,
2013-06-06 02:41:00,57.6,42.0,30.18,NW,315,3.0,5.8,57,0.00,,,0.00,Rainwise IP-100,2013-06-06 06:41:00,
2013-06-06 02:46:00,57.5,42.0,30.18,NW,315,2.3,5.1,57,0.00,,,0.00,Rainwise IP-100,2013-06-06 06:46:00,
2013-06-06 02:51:00,57.1,43.0,30.18,NW,315,3.0,4.4,59,0.00,,,0.00,Rainwise IP-100,2013-06-06 06:51:00,
2013-06-06 02:56:00,56.5,43.0,30.18,NW,315,3.7,6.1,61,0.00,,,0.00,Rainwise IP-100,2013-06-06 06:56:00,
2013-06-06 03:01:00,55.7,44.0,30.18,NW,315,4.7,6.5,64,0.00,,,0.00,Rainwise IP-100,2013-06-06 07:01:00,
2013-06-06 03:06:00,54.9,45.0,30.19,NW,315,3.3,7.2,68,0.00,,,0.00,Rainwise IP-100,2013-06-06 07:06:00,
2013-06-06 03:11:00,54.4,45.0,30.19,NW,315,2.8,5.8,70,0.00,,,0.00,Rainwise IP-100,2013-06-06 07:11:00,
2013-06-06 03:16:00,54.2,45.0,30.19,WNW,292,3.3,4.4,71,0.00,,,0.00,Rainwise IP-100,2013-06-06 07:16:00,
2013-06-06 03:21:00,53.9,46.0,30.19,NW,315,2.8,4.7,73,0.00,,,0.00,Rainwise IP-100,2013-06-06 07:21:00,
2013-06-06 03:26:00,53.6,45.0,30.19,NW,315,2.1,4.0,74,0.00,,,0.00,Rainwise IP-100,2013-06-06 07:26:00,
2013-06-06 03:31:00,53.4,46.0,30.19,NW,315,2.1,2.1,75,0.00,,,0.00,Rainwise IP-100,2013-06-06 07:31:00,
2013-06-06 03:36:00,53.0,45.0,30.19,NW,315,1.2,2.3,75,0.00,,,0.00,Rainwise IP-100,2013-06-06 07:36:00,
2013-06-06 03:41:00,52.7,45.0,30.19,NW,315,0.0,1.6,76,0.00,,,0.00,Rainwise IP-100,2013-06-06 07:41:00,
2013-06-06 03:46:00,52.5,45.0,30.19,NW,315,0.0,0.0,76,0.00,,,0.00,Rainwise IP-100,2013-06-06 07:46:00,
2013-06-06 03:51:00,52.3,45.0,30.20,NW,315,1.2,1.2,77,0.00,,,0.00,Rainwise IP-100,2013-06-06 07:51:00,
2013-06-06 03:56:00,52.1,45.0,30.19,NW,315,0.0,1.2,77,0.00,,,0.00,Rainwise IP-100,2013-06-06 07:56:00,
2013-06-06 04:01:00,51.9,45.0,30.20,NW,315,0.0,0.0,78,0.00,,,0.00,Rainwise IP-100,2013-06-06 08:01:00,
2013-06-06 04:06:00,51.7,45.0,30.20,WNW,292,2.8,3.3,78,0.00,,,0.00,Rainwise IP-100,2013-06-06 08:06:00,
2013-06-06 04:11:00,51.8,45.0,30.20,West,270,4.2,4.7,78,0.00,,,0.00,Rainwise IP-100,2013-06-06 08:11:00,
2013-06-06 04:16:00,52.0,45.0,30.20,WNW,292,3.0,4.9,77,0.00,,,0.00,Rainwise IP-100,2013-06-06 08:16:00,
2013-06-06 04:21:00,51.8,45.0,30.20,WNW,292,3.5,4.9,78,0.00,,,0.00,Rainwise IP-100,2013-06-06 08:21:00,
2013-06-06 04:26:00,51.5,46.0,30.20,WNW,292,3.5,4.7,79,0.00,,,0.00,Rainwise IP-100,2013-06-06 08:26:00,
2013-06-06 04:31:00,51.4,45.0,30.20,WNW,292,2.8,4.4,79,0.00,,,0.00,Rainwise IP-100,2013-06-06 08:31:00,
2013-06-06 04:36:00,51.6,45.0,30.20,WNW,292,3.7,4.2,77,0.00,,,0.00,Rainwise IP-100,2013-06-06 08:36:00,
2013-06-06 04:41:00,51.7,45.0,30.20,NW,315,2.6,4.4,76,0.00,,,0.00,Rainwise IP-100,2013-06-06 08:41:00,
2013-06-06 04:46:00,51.9,45.0,30.20,NW,315,1.6,3.3,76,0.00,,,0.00,Rainwise IP-100,2013-06-06 08:46:00,
2013-06-06 04:51:00,52.0,44.0,30.20,NW,315,3.3,3.3,75,0.00,,,0.00,Rainwise IP-100,2013-06-06 08:51:00,
2013-06-06 04:56:00,51.9,43.0,30.20,NW,315,3.3,3.5,73,0.00,,,0.00,Rainwise IP-100,2013-06-06 08:56:00,
2013-06-06 05:01:00,51.8,43.0,30.20,NW,315,2.8,3.7,73,0.00,,,0.00,Rainwise IP-100,2013-06-06 09:01:00,
2013-06-06 05:06:00,52.0,43.0,30.20,NW,315,3.5,4.0,71,0.00,,,0.00,Rainwise IP-100,2013-06-06 09:06:00,
2013-06-06 05:11:00,52.5,43.0,30.20,NW,315,1.2,4.0,69,0.00,,,0.00,Rainwise IP-100,2013-06-06 09:11:00,
2013-06-06 05:16:00,52.8,43.0,30.20,NW,315,2.6,2.8,69,0.00,,,0.00,Rainwise IP-100,2013-06-06 09:16:00,
2013-06-06 05:21:00,52.9,43.0,30.20,NW,315,4.2,4.4,70,0.00,,,0.00,Rainwise IP-100,2013-06-06 09:21:00,
2013-06-06 05:26:00,53.3,44.0,30.20,NNW,337,3.0,4.9,70,0.00,,,0.00,Rainwise IP-100,2013-06-06 09:26:00,
2013-06-06 05:31:00,53.2,44.0,30.20,NW,315,4.0,6.3,72,0.00,,,0.00,Rainwise IP-100,2013-06-06 09:31:00,
2013-06-06 05:36:00,53.0,45.0,30.20,West,270,3.3,4.9,75,0.00,,,0.00,Rainwise IP-100,2013-06-06 09:36:00,
2013-06-06 05:41:00,52.9,45.0,30.20,WNW,292,2.1,4.9,76,0.00,,,0.00,Rainwise IP-100,2013-06-06 09:41:00,
2013-06-06 05:46:00,52.7,45.0,30.21,WNW,292,2.6,4.2,76,0.00,,,0.00,Rainwise IP-100,2013-06-06 09:46:00,
2013-06-06 05:51:00,52.4,45.0,30.21,WNW,292,1.9,4.0,76,0.00,,,0.00,Rainwise IP-100,2013-06-06 09:51:00,
2013-06-06 05:56:00,52.1,45.0,30.22,WNW,292,1.6,2.3,78,0.00,,,0.00,Rainwise IP-100,2013-06-06 09:56:00,
2013-06-06 06:01:00,51.9,46.0,30.22,WNW,292,0.0,2.8,79,0.00,,,0.00,Rainwise IP-100,2013-06-06 10:01:00,
2013-06-06 06:06:00,51.7,46.0,30.22,WNW,292,2.6,3.7,80,0.00,,,0.00,Rainwise IP-100,2013-06-06 10:06:00,
2013-06-06 06:11:00,51.8,47.0,30.22,NNW,337,3.7,4.0,81,0.00,,,0.00,Rainwise IP-100,2013-06-06 10:11:00,
2013-06-06 06:16:00,52.2,47.0,30.22,WNW,292,3.3,5.1,82,0.00,,,0.00,Rainwise IP-100,2013-06-06 10:16:00,
2013-06-06 06:21:00,52.6,47.5,30.23,NW,315,1.6,5.4,82,0.00,,,0.00,Rainwise IP-100,2013-06-06 10:21:00,
2013-06-06 06:26:00,53.0,48.0,30.22,NW,315,3.0,5.8,84,0.00,,,0.00,Rainwise IP-100,2013-06-06 10:26:00,
2013-06-06 06:31:00,53.3,49.0,30.23,NNW,337,3.3,4.0,85,0.00,,,0.00,Rainwise IP-100,2013-06-06 10:31:00,
2013-06-06 06:36:00,53.5,48.0,30.23,NW,315,3.7,4.7,84,0.00,,,0.00,Rainwise IP-100,2013-06-06 10:36:00,
2013-06-06 06:41:00,53.6,48.0,30.23,NW,315,3.0,4.4,83,0.00,,,0.00,Rainwise IP-100,2013-06-06 10:41:00,
2013-06-06 06:46:00,53.8,48.0,30.22,NW,315,3.3,4.2,82,0.00,,,0.00,Rainwise IP-100,2013-06-06 10:46:00,
2013-06-06 06:51:00,53.9,48.0,30.23,WNW,292,4.2,4.9,82,0.00,,,0.00,Rainwise IP-100,2013-06-06 10:51:00,
2013-06-06 06:56:00,53.4,48.0,30.22,West,270,4.2,5.6,82,0.00,,,0.00,Rainwise IP-100,2013-06-06 10:56:00,
2013-06-06 07:01:00,52.8,47.5,30.23,West,270,4.0,5.1,82,0.00,,,0.00,Rainwise IP-100,2013-06-06 11:01:00,
2013-06-06 07:06:00,52.7,47.5,30.23,West,270,3.7,5.1,83,0.00,,,0.00,Rainwise IP-100,2013-06-06 11:06:00,
2013-06-06 07:11:00,52.9,48.0,30.22,NW,315,2.1,4.9,84,0.00,,,0.00,Rainwise IP-100,2013-06-06 11:11:00,
2013-06-06 07:16:00,53.3,48.0,30.22,NW,315,1.4,4.0,84,0.00,,,0.00,Rainwise IP-100,2013-06-06 11:16:00,
2013-06-06 07:21:00,54.0,50.0,30.22,NW,315,0.0,2.3,85,0.00,,,0.00,Rainwise IP-100,2013-06-06 11:21:00,
2013-06-06 07:26:00,55.0,50.5,30.23,NW,315,2.1,2.6,85,0.00,,,0.00,Rainwise IP-100,2013-06-06 11:26:00,
2013-06-06 07:31:00,55.8,51.0,30.23,NW,315,1.9,3.3,84,0.00,,,0.00,Rainwise IP-100,2013-06-06 11:31:00,
2013-06-06 07:36:00,56.3,51.0,30.23,NW,315,0.0,3.0,82,0.00,,,0.00,Rainwise IP-100,2013-06-06 11:36:00,
2013-06-06 07:41:00,57.1,50.5,30.23,WNW,292,3.0,3.5,79,0.00,,,0.00,Rainwise IP-100,2013-06-06 11:41:00,
2013-06-06 07:46:00,57.8,50.5,30.23,NW,315,1.9,3.5,75,0.00,,,0.00,Rainwise IP-100,2013-06-06 11:46:00,
2013-06-06 07:51:00,58.2,49.0,30.24,WNW,292,1.4,4.0,72,0.00,,,0.00,Rainwise IP-100,2013-06-06 11:51:00,
2013-06-06 07:56:00,58.5,48.0,30.24,NW,315,0.0,3.7,68,0.00,,,0.00,Rainwise IP-100,2013-06-06 11:56:00,
2013-06-06 08:01:00,59.0,47.5,30.24,NNW,337,1.2,2.6,65,0.00,,,0.00,Rainwise IP-100,2013-06-06 12:01:00,
2013-06-06 08:06:00,59.8,47.5,30.24,NW,315,2.3,2.8,64,0.00,,,0.00,Rainwise IP-100,2013-06-06 12:06:00,
2013-06-06 08:11:00,60.4,47.5,30.24,NW,315,1.9,2.6,62,0.00,,,0.00,Rainwise IP-100,2013-06-06 12:11:00,
2013-06-06 08:16:00,60.7,46.0,30.23,NW,315,1.6,2.6,58,0.00,,,0.00,Rainwise IP-100,2013-06-06 12:16:00,
2013-06-06 08:21:00,60.8,45.0,30.24,NW,315,2.6,2.6,55,0.00,,,0.00,Rainwise IP-100,2013-06-06 12:21:00,
2013-06-06 08:26:00,60.8,45.0,30.24,NW,315,0.0,2.8,56,0.00,,,0.00,Rainwise IP-100,2013-06-06 12:26:00,
2013-06-06 08:31:00,60.8,46.0,30.24,NW,315,0.0,2.3,57,0.00,,,0.00,Rainwise IP-100,2013-06-06 12:31:00,
2013-06-06 08:36:00,61.1,46.0,30.24,NW,315,1.6,2.6,57,0.00,,,0.00,Rainwise IP-100,2013-06-06 12:36:00,
2013-06-06 08:41:00,61.0,45.0,30.24,WNW,292,0.0,2.8,55,0.00,,,0.00,Rainwise IP-100,2013-06-06 12:41:00,
2013-06-06 08:46:00,61.1,45.0,30.25,NNW,337,0.0,0.0,55,0.00,,,0.00,Rainwise IP-100,2013-06-06 12:46:00,
2013-06-06 08:51:00,61.7,46.0,30.24,NNW,337,0.0,1.4,57,0.00,,,0.00,Rainwise IP-100,2013-06-06 12:51:00,
2013-06-06 08:56:00,62.6,48.0,30.24,NNW,337,0.0,1.4,59,0.00,,,0.00,Rainwise IP-100,2013-06-06 12:56:00,
2013-06-06 09:01:00,63.8,50.0,30.24,NNW,337,0.0,1.6,60,0.00,,,0.00,Rainwise IP-100,2013-06-06 13:01:00,
2013-06-06 09:06:00,64.6,49.0,30.24,North,0,0.0,0.0,57,0.00,,,0.00,Rainwise IP-100,2013-06-06 13:06:00,
2013-06-06 09:11:00,64.6,47.5,30.24,NE,45,1.9,2.1,54,0.00,,,0.00,Rainwise IP-100,2013-06-06 13:11:00,
2013-06-06 09:16:00,64.8,45.0,30.24,NNE,22,2.6,3.0,49,0.00,,,0.00,Rainwise IP-100,2013-06-06 13:16:00,
2013-06-06 09:21:00,65.6,45.0,30.24,NNE,22,1.2,3.0,48,0.00,,,0.00,Rainwise IP-100,2013-06-06 13:21:00,
2013-06-06 09:26:00,64.3,45.0,30.24,NE,45,1.4,1.9,49,0.00,,,0.00,Rainwise IP-100,2013-06-06 13:26:00,
2013-06-06 09:31:00,61.9,44.0,30.24,ENE,67,1.9,3.0,52,0.00,,,0.00,Rainwise IP-100,2013-06-06 13:31:00,
2013-06-06 09:36:00,61.0,44.0,30.24,ENE,67,2.3,2.8,54,0.00,,,0.00,Rainwise IP-100,2013-06-06 13:36:00,
2013-06-06 09:41:00,60.7,44.0,30.24,ENE,67,2.1,2.8,55,0.00,,,0.00,Rainwise IP-100,2013-06-06 13:41:00,
2013-06-06 09:46:00,60.8,45.0,30.24,ENE,67,1.4,2.6,55,0.00,,,0.00,Rainwise IP-100,2013-06-06 13:46:00,
2013-06-06 09:51:00,61.5,45.0,30.23,ENE,67,2.3,2.6,54,0.00,,,0.00,Rainwise IP-100,2013-06-06 13:51:00,
2013-06-06 09:56:00,61.9,46.0,30.23,ESE,112,2.3,3.5,55,0.00,,,0.00,Rainwise IP-100,2013-06-06 13:56:00,
2013-06-06 10:01:00,62.0,45.0,30.23,East,90,2.3,3.5,54,0.00,,,0.00,Rainwise IP-100,2013-06-06 14:01:00,
2013-06-06 10:06:00,62.1,45.0,30.24,East,90,2.8,3.0,53,0.00,,,0.00,Rainwise IP-100,2013-06-06 14:06:00,
2013-06-06 10:11:00,62.3,45.0,30.23,East,90,2.6,3.3,52,0.00,,,0.00,Rainwise IP-100,2013-06-06 14:11:00,
2013-06-06 10:16:00,62.0,44.0,30.24,East,90,2.8,4.0,52,0.00,,,0.00,Rainwise IP-100,2013-06-06 14:16:00,
2013-06-06 10:21:00,61.5,44.0,30.24,SE,135,4.7,4.7,53,0.00,,,0.00,Rainwise IP-100,2013-06-06 14:21:00,
2013-06-06 10:26:00,61.0,44.0,30.24,ESE,112,5.6,5.8,53,0.00,,,0.00,Rainwise IP-100,2013-06-06 14:26:00,
2013-06-06 10:31:00,60.9,44.0,30.24,ESE,112,5.8,7.2,53,0.00,,,0.00,Rainwise IP-100,2013-06-06 14:31:00,
2013-06-06 10:36:00,60.8,45.0,30.24,SE,135,3.0,7.5,55,0.00,,,0.00,Rainwise IP-100,2013-06-06 14:36:00,
2013-06-06 10:41:00,60.8,45.0,30.25,SSW,202,2.1,7.2,56,0.00,,,0.00,Rainwise IP-100,2013-06-06 14:41:00,
2013-06-06 10:46:00,61.6,45.0,30.24,SE,135,6.5,8.2,54,0.00,,,0.00,Rainwise IP-100,2013-06-06 14:46:00,
2013-06-06 10:51:00,62.2,42.0,30.24,SE,135,7.5,10.0,49,0.00,,,0.00,Rainwise IP-100,2013-06-06 14:51:00,
2013-06-06 10:56:00,62.0,41.0,30.25,SSE,157,4.7,9.6,46,0.00,,,0.00,Rainwise IP-100,2013-06-06 14:56:00,
2013-06-06 11:01:00,61.7,40.0,30.25,SE,135,2.6,9.6,46,0.00,,,0.00,Rainwise IP-100,2013-06-06 15:01:00,
2013-06-06 11:06:00,61.6,41.0,30.25,SSE,157,3.5,7.9,47,0.00,,,0.00,Rainwise IP-100,2013-06-06 15:06:00,
2013-06-06 11:11:00,61.6,40.0,30.25,SE,135,6.8,9.6,46,0.00,,,0.00,Rainwise IP-100,2013-06-06 15:11:00,
2013-06-06 11:16:00,61.5,40.0,30.25,SE,135,7.2,9.3,46,0.00,,,0.00,Rainwise IP-100,2013-06-06 15:16:00,
2013-06-06 11:21:00,61.4,40.0,30.25,SE,135,3.5,9.1,46,0.00,,,0.00,Rainwise IP-100,2013-06-06 15:21:00,
2013-06-06 11:26:00,61.3,40.0,30.24,ESE,112,8.2,8.4,46,0.00,,,0.00,Rainwise IP-100,2013-06-06 15:26:00,
2013-06-06 11:31:00,61.0,40.0,30.25,SE,135,3.5,8.6,46,0.00,,,0.00,Rainwise IP-100,2013-06-06 15:31:00,
2013-06-06 11:36:00,60.7,40.0,30.24,ESE,112,6.8,10.7,47,0.00,,,0.00,Rainwise IP-100,2013-06-06 15:36:00,
2013-06-06 11:41:00,60.7,39.0,30.24,SE,135,6.3,10.7,46,0.00,,,0.00,Rainwise IP-100,2013-06-06 15:41:00,
2013-06-06 11:46:00,60.7,39.0,30.24,SE,135,7.5,9.6,46,0.00,,,0.00,Rainwise IP-100,2013-06-06 15:46:00,
2013-06-06 11:51:00,60.6,39.0,30.24,SSE,157,6.1,9.8,46,0.00,,,0.00,Rainwise IP-100,2013-06-06 15:51:00,
2013-06-06 11:56:00,60.4,39.0,30.24,SSE,157,7.2,10.7,46,0.00,,,0.00,Rainwise IP-100,2013-06-06 15:56:00,
2013-06-06 12:01:00,60.5,39.0,30.25,South,180,4.9,9.1,46,0.00,,,0.00,Rainwise IP-100,2013-06-06 16:01:00,
2013-06-06 12:06:00,60.7,39.0,30.25,East,90,5.8,10.7,45,0.00,,,0.00,Rainwise IP-100,2013-06-06 16:06:00,
2013-06-06 12:11:00,60.8,39.0,30.24,SSE,157,7.5,9.3,45,0.00,,,0.00,Rainwise IP-100,2013-06-06 16:11:00,
2013-06-06 12:16:00,60.6,38.0,30.24,SE,135,4.9,9.6,44,0.00,,,0.00,Rainwise IP-100,2013-06-06 16:16:00,
2013-06-06 12:21:00,60.5,39.0,30.24,ESE,112,7.5,12.4,45,0.00,,,0.00,Rainwise IP-100,2013-06-06 16:21:00,
2013-06-06 12:26:00,60.5,39.0,30.24,SE,135,11.7,11.7,45,0.00,,,0.00,Rainwise IP-100,2013-06-06 16:26:00,
2013-06-06 12:31:00,60.5,39.0,30.24,ESE,112,4.9,11.7,46,0.00,,,0.00,Rainwise IP-100,2013-06-06 16:31:00,
2013-06-06 12:36:00,60.4,39.0,30.24,SE,135,5.4,10.0,46,0.00,,,0.00,Rainwise IP-100,2013-06-06 16:36:00,
2013-06-06 12:41:00,60.2,39.0,30.24,SE,135,3.7,11.0,47,0.00,,,0.00,Rainwise IP-100,2013-06-06 16:41:00,
2013-06-06 12:46:00,60.1,40.0,30.24,SE,135,11.0,13.3,48,0.00,,,0.00,Rainwise IP-100,2013-06-06 16:46:00,
2013-06-06 12:51:00,59.9,40.0,30.24,SE,135,9.1,11.9,49,0.00,,,0.00,Rainwise IP-100,2013-06-06 16:51:00,
2013-06-06 12:56:00,59.6,41.0,30.23,SSE,157,5.6,12.8,50,0.00,,,0.00,Rainwise IP-100,2013-06-06 16:56:00,
2013-06-06 13:01:00,59.6,41.0,30.23,SSE,157,4.9,13.3,51,0.00,,,0.00,Rainwise IP-100,2013-06-06 17:01:00,
2013-06-06 13:06:00,59.7,41.0,30.23,SE,135,10.3,12.8,51,0.00,,,0.00,Rainwise IP-100,2013-06-06 17:06:00,
2013-06-06 13:11:00,59.7,41.0,30.24,ESE,112,6.5,12.8,51,0.00,,,0.00,Rainwise IP-100,2013-06-06 17:11:00,
2013-06-06 13:16:00,59.8,41.0,30.23,SE,135,7.5,12.8,50,0.00,,,0.00,Rainwise IP-100,2013-06-06 17:16:00,
2013-06-06 13:21:00,59.8,41.0,30.23,SE,135,7.5,13.1,50,0.00,,,0.00,Rainwise IP-100,2013-06-06 17:21:00,
2013-06-06 13:26:00,59.4,42.0,30.23,SE,135,4.7,11.2,52,0.00,,,0.00,Rainwise IP-100,2013-06-06 17:26:00,
2013-06-06 13:31:00,59.3,43.0,30.23,SE,135,5.4,12.4,54,0.00,,,0.00,Rainwise IP-100,2013-06-06 17:31:00,
2013-06-06 13:36:00,59.2,43.0,30.23,SSE,157,8.2,10.7,55,0.00,,,0.00,Rainwise IP-100,2013-06-06 17:36:00,
2013-06-06 13:41:00,59.0,43.0,30.23,SE,135,6.3,12.6,56,0.00,,,0.00,Rainwise IP-100,2013-06-06 17:41:00,
2013-06-06 13:46:00,58.9,43.0,30.23,SSE,157,7.5,12.4,56,0.00,,,0.00,Rainwise IP-100,2013-06-06 17:46:00,
2013-06-06 13:51:00,58.6,44.0,30.23,SE,135,5.8,13.8,57,0.00,,,0.00,Rainwise IP-100,2013-06-06 17:51:00,
2013-06-06 13:56:00,58.6,44.0,30.22,ESE,112,6.3,13.5,58,0.00,,,0.00,Rainwise IP-100,2013-06-06 17:56:00,
2013-06-06 14:01:00,59.1,43.0,30.22,SSE,157,7.2,11.0,56,0.00,,,0.00,Rainwise IP-100,2013-06-06 18:01:00,
2013-06-06 14:06:00,59.6,42.0,30.22,SSE,157,9.1,12.4,52,0.00,,,0.00,Rainwise IP-100,2013-06-06 18:06:00,
2013-06-06 14:11:00,59.4,42.0,30.22,SE,135,6.8,14.7,52,0.00,,,0.00,Rainwise IP-100,2013-06-06 18:11:00,
2013-06-06 14:16:00,59.2,42.0,30.22,SE,135,6.5,15.4,53,0.00,,,0.00,Rainwise IP-100,2013-06-06 18:16:00,
2013-06-06 14:21:00,59.5,42.0,30.22,ESE,112,8.6,12.1,53,0.00,,,0.00,Rainwise IP-100,2013-06-06 18:21:00,
2013-06-06 14:26:00,59.5,42.0,30.22,SE,135,9.8,13.1,53,0.00,,,0.00,Rainwise IP-100,2013-06-06 18:26:00,
2013-06-06 14:31:00,58.8,43.0,30.22,ESE,112,5.1,16.1,55,0.00,,,0.00,Rainwise IP-100,2013-06-06 18:31:00,
2013-06-06 14:36:00,58.7,43.0,30.21,SE,135,10.7,13.8,56,0.00,,,0.00,Rainwise IP-100,2013-06-06 18:36:00,
2013-06-06 14:41:00,58.8,43.0,30.21,East,90,7.9,14.0,56,0.00,,,0.00,Rainwise IP-100,2013-06-06 18:41:00,
2013-06-06 14:46:00,58.7,43.0,30.22,SSE,157,6.5,12.8,56,0.00,,,0.00,Rainwise IP-100,2013-06-06 18:46:00,
2013-06-06 14:51:00,58.7,44.0,30.21,ESE,112,7.0,12.4,58,0.00,,,0.00,Rainwise IP-100,2013-06-06 18:51:00,
2013-06-06 14:56:00,58.4,44.0,30.21,SE,135,7.2,13.8,59,0.00,,,0.00,Rainwise IP-100,2013-06-06 18:56:00,
2013-06-06 15:01:00,58.1,44.0,30.22,SSE,157,5.8,13.8,60,0.00,,,0.00,Rainwise IP-100,2013-06-06 19:01:00,
2013-06-06 15:06:00,57.9,45.0,30.21,SE,135,7.9,13.3,61,0.00,,,0.00,Rainwise IP-100,2013-06-06 19:06:00,
2013-06-06 15:11:00,58.2,45.0,30.21,SE,135,8.2,13.3,61,0.00,,,0.00,Rainwise IP-100,2013-06-06 19:11:00,
2013-06-06 15:16:00,59.1,44.0,30.21,SE,135,9.6,12.8,58,0.00,,,0.00,Rainwise IP-100,2013-06-06 19:16:00,
2013-06-06 15:21:00,58.8,45.0,30.22,ESE,112,9.8,14.2,59,0.00,,,0.00,Rainwise IP-100,2013-06-06 19:21:00,
2013-06-06 15:26:00,57.2,45.0,30.22,SE,135,10.7,14.7,64,0.00,,,0.00,Rainwise IP-100,2013-06-06 19:26:00,
2013-06-06 15:31:00,56.4,46.0,30.21,ESE,112,11.0,13.5,68,0.00,,,0.00,Rainwise IP-100,2013-06-06 19:31:00,
2013-06-06 15:36:00,56.4,47.0,30.22,SE,135,9.1,15.4,69,0.00,,,0.00,Rainwise IP-100,2013-06-06 19:36:00,
2013-06-06 15:37:00,56.4,47.0,30.22,SE,135,10.3,15.4,69,0.00,,,0.00,Rainwise IP-100,2013-06-06 19:37:00,
2013-06-06 15:42:00,56.7,46.0,30.22,ESE,112,6.5,14.0,68,0.00,,,0.00,Rainwise IP-100,2013-06-06 19:42:00,
2013-06-06 15:47:00,57.6,46.0,30.21,SE,135,8.4,12.6,65,0.00,,,0.00,Rainwise IP-100,2013-06-06 19:47:00,
2013-06-06 15:52:00,58.3,45.0,30.22,SSE,157,9.8,12.4,62,0.00,,,0.00,Rainwise IP-100,2013-06-06 19:52:00,
2013-06-06 15:57:00,58.3,45.0,30.21,SSE,157,5.1,12.1,62,0.00,,,0.00,Rainwise IP-100,2013-06-06 19:57:00,
2013-06-06 16:00:00,58.7,46.0,30.21,SE,135,6.5,13.1,61,0.00,,,0.00,Rainwise IP-100,2013-06-06 20:00:00,
2013-06-06 16:05:00,59.5,45.0,30.20,SE,135,7.9,10.7,58,0.00,,,0.00,Rainwise IP-100,2013-06-06 20:05:00,
2013-06-06 16:10:00,59.9,44.0,30.20,SE,135,7.0,9.8,56,0.00,,,0.00,Rainwise IP-100,2013-06-06 20:10:00,
2013-06-06 16:15:00,59.6,44.0,30.21,SE,135,3.3,11.4,57,0.00,,,0.00,Rainwise IP-100,2013-06-06 20:15:00,
2013-06-06 16:20:00,58.9,45.0,30.20,SE,135,6.8,9.6,59,0.00,,,0.00,Rainwise IP-100,2013-06-06 20:20:00,
2013-06-06 16:25:00,58.9,45.0,30.21,South,180,6.8,10.5,60,0.00,,,0.00,Rainwise IP-100,2013-06-06 20:25:00,
2013-06-06 16:30:00,59.5,45.0,30.20,SE,135,7.5,10.5,59,0.00,,,0.00,Rainwise IP-100,2013-06-06 20:30:00,
2013-06-06 16:35:00,59.8,46.0,30.20,SSE,157,4.2,12.6,59,0.00,,,0.00,Rainwise IP-100,2013-06-06 20:35:00,
2013-06-06 16:40:00,60.3,45.0,30.21,SE,135,7.2,9.3,57,0.00,,,0.00,Rainwise IP-100,2013-06-06 20:40:00,
2013-06-06 16:45:00,60.5,45.0,30.20,ESE,112,9.1,12.6,57,0.00,,,0.00,Rainwise IP-100,2013-06-06 20:45:00,
2013-06-06 16:50:00,59.5,46.0,30.21,SE,135,6.3,11.7,61,0.00,,,0.00,Rainwise IP-100,2013-06-06 20:50:00,
2013-06-06 16:55:00,59.5,46.0,30.21,SE,135,9.3,9.8,61,0.00,,,0.00,Rainwise IP-100,2013-06-06 20:55:00,
2013-06-06 17:00:00,60.3,45.0,30.21,SE,135,8.9,10.0,57,0.00,,,0.00,Rainwise IP-100,2013-06-06 21:00:00,
2013-06-06 17:05:00,60.7,45.0,30.20,ESE,112,4.7,9.3,56,0.00,,,0.00,Rainwise IP-100,2013-06-06 21:05:00,
2013-06-06 17:10:00,61.2,45.0,30.20,ESE,112,4.0,7.7,55,0.00,,,0.00,Rainwise IP-100,2013-06-06 21:10:00,
2013-06-06 17:15:00,61.4,45.0,30.21,SE,135,7.0,9.6,54,0.00,,,0.00,Rainwise IP-100,2013-06-06 21:15:00,
2013-06-06 17:20:00,61.2,44.0,30.20,SE,135,5.8,9.1,54,0.00,,,0.00,Rainwise IP-100,2013-06-06 21:20:00,
2013-06-06 17:25:00,61.0,45.0,30.20,ESE,112,6.1,8.4,55,0.00,,,0.00,Rainwise IP-100,2013-06-06 21:25:00,
2013-06-06 17:30:00,61.0,45.0,30.20,South,180,4.4,9.1,55,0.00,,,0.00,Rainwise IP-100,2013-06-06 21:30:00,
2013-06-06 17:35:00,61.6,45.0,30.20,SE,135,2.1,10.7,54,0.00,,,0.00,Rainwise IP-100,2013-06-06 21:35:00,
2013-06-06 17:40:00,62.2,44.0,30.20,South,180,5.1,10.0,52,0.00,,,0.00,Rainwise IP-100,2013-06-06 21:40:00,
2013-06-06 17:45:00,62.4,44.0,30.20,SSE,157,3.3,6.8,51,0.00,,,0.00,Rainwise IP-100,2013-06-06 21:45:00,
2013-06-06 17:50:00,62.2,44.0,30.20,South,180,2.6,6.1,52,0.00,,,0.00,Rainwise IP-100,2013-06-06 21:50:00,
2013-06-06 17:55:00,62.1,45.0,30.20,SSE,157,5.8,7.7,54,0.00,,,0.00,Rainwise IP-100,2013-06-06 21:55:00,
2013-06-06 18:00:00,61.9,46.0,30.20,South,180,4.7,7.0,55,0.00,,,0.00,Rainwise IP-100,2013-06-06 22:00:00,
2013-06-06 18:05:00,61.9,46.0,30.20,SE,135,1.6,7.7,55,0.00,,,0.00,Rainwise IP-100,2013-06-06 22:05:00,
2013-06-06 18:10:00,62.0,46.0,30.20,South,180,3.3,6.3,56,0.00,,,0.00,Rainwise IP-100,2013-06-06 22:10:00,
2013-06-06 18:15:00,61.9,46.0,30.21,South,180,3.7,5.1,56,0.00,,,0.00,Rainwise IP-100,2013-06-06 22:15:00,
2013-06-06 18:20:00,61.8,46.0,30.20,SSE,157,6.1,6.3,56,0.00,,,0.00,Rainwise IP-100,2013-06-06 22:20:00,
2013-06-06 18:25:00,61.7,45.0,30.20,SSE,157,2.3,6.8,55,0.00,,,0.00,Rainwise IP-100,2013-06-06 22:25:00,
2013-06-06 18:30:00,61.7,45.0,30.20,SSE,157,4.2,5.6,55,0.00,,,0.00,Rainwise IP-100,2013-06-06 22:30:00,
2013-06-06 18:35:00,61.8,46.0,30.20,South,180,4.4,6.3,55,0.00,,,0.00,Rainwise IP-100,2013-06-06 22:35:00,
2013-06-06 18:40:00,61.7,45.0,30.20,SSE,157,3.0,6.3,55,0.00,,,0.00,Rainwise IP-100,2013-06-06 22:40:00,
2013-06-06 18:45:00,61.7,45.0,30.21,South,180,5.4,5.8,55,0.00,,,0.00,Rainwise IP-100,2013-06-06 22:45:00,
2013-06-06 18:50:00,61.6,45.0,30.21,South,180,3.0,8.4,55,0.00,,,0.00,Rainwise IP-100,2013-06-06 22:50:00,
2013-06-06 18:55:00,61.6,45.0,30.20,South,180,3.3,6.8,54,0.00,,,0.00,Rainwise IP-100,2013-06-06 22:55:00,
2013-06-06 19:00:00,61.8,45.0,30.21,SW,225,0.0,5.6,54,0.00,,,0.00,Rainwise IP-100,2013-06-06 23:00:00,
2013-06-06 19:05:00,62.0,45.0,30.21,NNW,337,1.2,2.3,54,0.00,,,0.00,Rainwise IP-100,2013-06-06 23:05:00,
2013-06-06 19:10:00,62.2,46.0,30.21,North,0,0.0,3.3,55,0.00,,,0.00,Rainwise IP-100,2013-06-06 23:10:00,
2013-06-06 19:15:00,62.0,47.0,30.21,North,0,0.0,1.6,57,0.00,,,0.00,Rainwise IP-100,2013-06-06 23:15:00,
2013-06-06 19:20:00,61.6,46.0,30.22,North,0,0.0,3.5,57,0.00,,,0.00,Rainwise IP-100,2013-06-06 23:20:00,
2013-06-06 19:25:00,60.8,47.0,30.22,North,0,0.0,2.6,59,0.00,,,0.00,Rainwise IP-100,2013-06-06 23:25:00,
2013-06-06 19:30:00,60.1,47.0,30.21,North,0,0.0,0.0,62,0.00,,,0.00,Rainwise IP-100,2013-06-06 23:30:00,
2013-06-06 19:35:00,59.7,47.0,30.22,North,0,1.6,1.6,63,0.00,,,0.00,Rainwise IP-100,2013-06-06 23:35:00,
2013-06-06 19:40:00,59.3,47.5,30.21,North,0,0.0,1.9,64,0.00,,,0.00,Rainwise IP-100,2013-06-06 23:40:00,
2013-06-06 19:45:00,59.1,47.0,30.22,North,0,0.0,0.0,64,0.00,,,0.00,Rainwise IP-100,2013-06-06 23:45:00,
2013-06-06 19:50:00,59.0,47.5,30.22,North,0,0.0,0.0,66,0.00,,,0.00,Rainwise IP-100,2013-06-06 23:50:00,
2013-06-06 19:55:00,58.6,49.0,30.22,North,0,0.0,0.0,69,0.00,,,0.00,Rainwise IP-100,2013-06-06 23:55:00,
2013-06-06 20:00:00,58.3,48.0,30.22,North,0,1.6,1.9,70,0.00,,,0.00,Rainwise IP-100,2013-06-07 00:00:00,
2013-06-06 20:05:00,57.8,48.0,30.22,North,0,0.0,2.1,70,0.00,,,0.00,Rainwise IP-100,2013-06-07 00:05:00,
2013-06-06 20:10:00,57.3,47.5,30.22,North,0,0.0,1.6,69,0.00,,,0.00,Rainwise IP-100,2013-06-07 00:10:00,
2013-06-06 20:15:00,56.9,47.5,30.22,North,0,0.0,0.0,71,0.00,,,0.00,Rainwise IP-100,2013-06-07 00:15:00,
2013-06-06 20:20:00,56.6,48.0,30.23,NNE,22,0.0,1.2,74,0.00,,,0.00,Rainwise IP-100,2013-06-07 00:20:00,
2013-06-06 20:25:00,56.2,48.0,30.22,NE,45,1.2,1.4,76,0.00,,,0.00,Rainwise IP-100,2013-06-07 00:25:00,
2013-06-06 20:30:00,55.7,50.0,30.23,NE,45,0.0,1.4,79,0.00,,,0.00,Rainwise IP-100,2013-06-07 00:30:00,
2013-06-06 20:35:00,55.4,49.0,30.23,NE,45,0.0,0.0,80,0.00,,,0.00,Rainwise IP-100,2013-06-07 00:35:00,
2013-06-06 20:40:00,55.5,49.0,30.23,NE,45,0.0,0.0,78,0.00,,,0.00,Rainwise IP-100,2013-06-07 00:40:00,
2013-06-06 20:45:00,55.9,48.0,30.23,NNW,337,1.6,1.6,76,0.00,,,0.00,Rainwise IP-100,2013-06-07 00:45:00,
2013-06-06 20:50:00,56.2,49.0,30.23,NW,315,0.0,2.3,78,0.00,,,0.00,Rainwise IP-100,2013-06-07 00:50:00,
2013-06-06 20:55:00,56.3,50.0,30.23,North,0,1.6,1.6,78,0.00,,,0.00,Rainwise IP-100,2013-06-07 00:55:00,
2013-06-06 21:00:00,56.1,49.0,30.22,NNE,22,0.0,3.0,77,0.00,,,0.00,Rainwise IP-100,2013-06-07 01:00:00,
2013-06-06 21:05:00,56.0,48.0,30.22,North,0,0.0,1.6,76,0.00,,,0.00,Rainwise IP-100,2013-06-07 01:05:00,
2013-06-06 21:10:00,56.0,48.0,30.23,ESE,112,1.4,0.0,76,0.00,,,0.00,Rainwise IP-100,2013-06-07 01:10:00,
2013-06-06 21:15:00,55.8,49.0,30.23,ESE,112,1.9,2.1,78,0.00,,,0.00,Rainwise IP-100,2013-06-07 01:15:00,
2013-06-06 21:20:00,55.4,49.0,30.23,SSE,157,2.6,3.3,80,0.00,,,0.00,Rainwise IP-100,2013-06-07 01:20:00,
2013-06-06 21:25:00,55.5,50.0,30.23,South,180,0.0,2.8,81,0.00,,,0.00,Rainwise IP-100,2013-06-07 01:25:00,
2013-06-06 21:30:00,55.7,50.0,30.23,ESE,112,3.0,0.0,81,0.00,,,0.00,Rainwise IP-100,2013-06-07 01:30:00,
2013-06-06 21:35:00,55.5,50.0,30.23,ENE,67,3.0,4.4,81,0.00,,,0.00,Rainwise IP-100,2013-06-07 01:35:00,
2013-06-06 21:40:00,55.3,50.0,30.23,WNW,292,2.1,3.5,82,0.00,,,0.00,Rainwise IP-100,2013-06-07 01:40:00,
2013-06-06 21:45:00,55.6,50.0,30.23,NNE,22,0.0,4.2,81,0.00,,,0.00,Rainwise IP-100,2013-06-07 01:45:00,
2013-06-06 21:50:00,55.8,50.0,30.23,SE,135,3.0,3.5,81,0.00,,,0.00,Rainwise IP-100,2013-06-07 01:50:00,
2013-06-06 21:55:00,55.8,50.0,30.22,East,90,1.6,4.4,81,0.00,,,0.00,Rainwise IP-100,2013-06-07 01:55:00,
2013-06-06 22:00:00,55.8,50.0,30.22,SW,225,1.9,4.0,81,0.00,,,0.00,Rainwise IP-100,2013-06-07 02:00:00,
2013-06-06 22:05:00,56.6,50.5,30.22,SSE,157,0.0,6.8,80,0.00,,,0.00,Rainwise IP-100,2013-06-07 02:05:00,
2013-06-06 22:10:00,57.1,50.5,30.21,East,90,5.4,5.4,78,0.00,,,0.00,Rainwise IP-100,2013-06-07 02:10:00,
2013-06-06 22:15:00,56.3,50.0,30.21,ENE,67,0.0,7.0,79,0.00,,,0.00,Rainwise IP-100,2013-06-07 02:15:00,
2013-06-06 22:20:00,55.8,50.0,30.22,SE,135,2.3,2.6,81,0.00,,,0.00,Rainwise IP-100,2013-06-07 02:20:00,
2013-06-06 22:25:00,55.7,50.5,30.23,SE,135,4.0,4.7,82,0.00,,,0.00,Rainwise IP-100,2013-06-07 02:25:00,
2013-06-06 22:30:00,55.4,50.5,30.22,SE,135,1.9,4.0,84,0.00,,,0.00,Rainwise IP-100,2013-06-07 02:30:00,
2013-06-06 22:35:00,55.0,50.5,30.22,ESE,112,1.4,3.3,85,0.00,,,0.00,Rainwise IP-100,2013-06-07 02:35:00,
2013-06-06 22:40:00,54.6,50.5,30.22,SSE,157,3.3,4.4,87,0.00,,,0.00,Rainwise IP-100,2013-06-07 02:40:00,
2013-06-06 22:45:00,54.3,51.0,30.22,SE,135,3.7,4.0,88,0.00,,,0.00,Rainwise IP-100,2013-06-07 02:45:00,
2013-06-06 22:50:00,54.0,50.5,30.22,SSE,157,0.0,6.1,89,0.00,,,0.00,Rainwise IP-100,2013-06-07 02:50:00,
2013-06-06 22:55:00,53.8,51.0,30.21,ESE,112,2.6,2.6,90,0.00,,,0.00,Rainwise IP-100,2013-06-07 02:55:00,
2013-06-06 23:00:00,53.6,50.5,30.21,East,90,3.0,4.7,91,0.00,,,0.00,Rainwise IP-100,2013-06-07 03:00:00,
2013-06-06 23:05:00,53.2,50.0,30.21,East,90,0.0,4.2,91,0.00,,,0.00,Rainwise IP-100,2013-06-07 03:05:00,
2013-06-06 23:10:00,53.1,50.5,30.21,East,90,1.2,1.9,92,0.00,,,0.00,Rainwise IP-100,2013-06-07 03:10:00,
2013-06-06 23:15:00,53.1,50.5,30.21,East,90,0.0,1.6,93,0.00,,,0.00,Rainwise IP-100,2013-06-07 03:15:00,
2013-06-06 23:20:00,53.1,50.5,30.21,East,90,0.0,0.0,93,0.00,,,0.00,Rainwise IP-100,2013-06-07 03:20:00,
2013-06-06 23:25:00,53.2,50.5,30.21,East,90,0.0,0.0,93,0.00,,,0.00,Rainwise IP-100,2013-06-07 03:25:00,
2013-06-06 23:30:00,53.4,51.0,30.21,East,90,0.0,0.0,93,0.00,,,0.00,Rainwise IP-100,2013-06-07 03:30:00,
2013-06-06 23:35:00,53.4,51.0,30.21,East,90,0.0,1.6,93,0.00,,,0.00,Rainwise IP-100,2013-06-07 03:35:00,
2013-06-06 23:40:00,53.4,51.0,30.21,ESE,112,2.8,2.8,93,0.00,,,0.00,Rainwise IP-100,2013-06-07 03:40:00,
2013-06-06 23:45:00,53.5,51.0,30.20,ESE,112,2.1,3.5,93,0.00,,,0.00,Rainwise IP-100,2013-06-07 03:45:00,
2013-06-06 23:50:00,53.5,51.0,30.21,ESE,112,2.3,3.3,93,0.00,,,0.00,Rainwise IP-100,2013-06-07 03:50:00,
2013-06-06 23:55:00,53.3,51.0,30.21,ESE,112,1.6,2.8,93,0.00,,,0.00,Rainwise IP-100,2013-06-07 03:55:00,